createdAt,value
2018-08-25T00:00:53.940Z,64.81
2018-08-25T00:03:21.581Z,64.78
2018-08-25T00:05:49.236Z,64.46
2018-08-25T00:08:16.935Z,64.56
2018-08-25T00:10:44.579Z,65.50
2018-08-25T00:13:12.212Z,65.87
2018-08-25T00:15:39.831Z,67.29
2018-08-25T00:18:08.976Z,67.69
2018-08-25T00:20:36.736Z,67.37
2018-08-25T00:23:04.348Z,66.77
2018-08-25T00:25:31.963Z,66.96
2018-08-25T00:27:59.610Z,67.01
2018-08-25T00:30:32.670Z,66.86
2018-08-25T00:33:00.294Z,67.01
2018-08-25T00:35:27.896Z,66.99
2018-08-25T00:37:55.536Z,67.03
2018-08-25T00:40:23.199Z,66.69
2018-08-25T00:42:50.931Z,66.57
2018-08-25T00:45:18.544Z,66.51
2018-08-25T00:47:46.268Z,66.74
2018-08-25T00:50:13.862Z,67.40
2018-08-25T00:52:41.752Z,67.49
2018-08-25T00:55:09.432Z,67.04
2018-08-25T00:57:37.116Z,66.50
2018-08-25T01:00:04.824Z,66.10
2018-08-25T01:02:32.462Z,66.06
2018-08-25T01:05:00.154Z,65.55
2018-08-25T01:07:27.779Z,65.10
2018-08-25T01:09:55.504Z,64.66
2018-08-25T01:12:23.182Z,64.50
2018-08-25T01:14:50.849Z,64.43
2018-08-25T01:17:18.599Z,63.78
2018-08-25T01:19:46.227Z,63.79
2018-08-25T01:22:13.863Z,64.15
2018-08-25T01:24:41.539Z,64.53
2018-08-25T01:27:09.174Z,63.91
2018-08-25T01:29:36.791Z,64.00
2018-08-25T01:32:04.460Z,64.37
2018-08-25T01:34:32.093Z,64.33
2018-08-25T01:36:59.747Z,64.18
2018-08-25T01:39:27.566Z,64.64
2018-08-25T01:41:55.270Z,64.40
2018-08-25T01:44:22.882Z,64.17
2018-08-25T01:46:50.595Z,63.95
2018-08-25T01:49:18.199Z,64.03
2018-08-25T01:51:45.829Z,64.38
2018-08-25T01:54:13.475Z,64.70
2018-08-25T01:56:41.102Z,65.32
2018-08-25T01:59:08.802Z,66.28
2018-08-25T02:01:36.438Z,67.25
2018-08-25T02:04:04.048Z,67.03
2018-08-25T02:06:31.673Z,67.86
2018-08-25T02:08:59.378Z,67.73
2018-08-25T02:11:27.024Z,67.66
2018-08-25T02:13:54.635Z,67.30
2018-08-25T02:16:22.275Z,68.66
2018-08-25T02:18:49.887Z,68.65
2018-08-25T02:21:17.527Z,68.19
2018-08-25T02:23:45.165Z,68.30
2018-08-25T02:26:12.783Z,66.63
2018-08-25T02:28:40.391Z,66.50
2018-08-25T02:31:08.055Z,64.97
2018-08-25T02:33:35.703Z,65.73
2018-08-25T02:36:03.334Z,64.33
2018-08-25T02:38:31.026Z,63.78
2018-08-25T02:40:58.662Z,64.60
2018-08-25T02:43:26.272Z,63.32
2018-08-25T02:45:53.939Z,64.14
2018-08-25T02:48:21.613Z,63.59
2018-08-25T02:50:49.205Z,62.33
2018-08-25T02:53:16.846Z,61.47
2018-08-25T02:55:44.462Z,62.16
2018-08-25T02:58:12.142Z,62.89
2018-08-25T03:00:39.795Z,62.81
2018-08-25T03:03:07.424Z,62.53
2018-08-25T03:05:35.111Z,63.15
2018-08-25T03:08:02.743Z,62.35
2018-08-25T03:10:30.372Z,62.16
2018-08-25T03:12:57.990Z,62.03
2018-08-25T03:15:25.643Z,61.92
2018-08-25T03:17:53.321Z,61.75
2018-08-25T03:20:20.919Z,62.07
2018-08-25T03:22:48.548Z,63.22
2018-08-25T03:25:16.151Z,62.05
2018-08-25T03:27:43.804Z,62.35
2018-08-25T03:30:11.462Z,62.84
2018-08-25T03:32:39.066Z,62.50
2018-08-25T03:35:06.687Z,63.02
2018-08-25T03:37:34.325Z,62.72
2018-08-25T03:40:02.088Z,63.42
2018-08-25T03:42:29.720Z,62.77
2018-08-25T03:44:57.363Z,62.11
2018-08-25T03:47:24.970Z,63.09
2018-08-25T03:49:52.552Z,63.71
2018-08-25T03:52:20.221Z,63.02
2018-08-25T03:54:47.831Z,62.50
2018-08-25T03:57:15.419Z,61.76
2018-08-25T03:59:43.080Z,61.72
2018-08-25T04:02:10.671Z,62.89
2018-08-25T04:04:38.316Z,63.57
2018-08-25T04:07:06.059Z,63.62
2018-08-25T04:09:33.685Z,63.72
2018-08-25T04:12:01.309Z,63.98
2018-08-25T04:14:28.951Z,63.72
2018-08-25T04:16:56.587Z,63.83
2018-08-25T04:19:24.189Z,63.89
2018-08-25T04:21:51.812Z,64.22
2018-08-25T04:24:19.461Z,63.99
2018-08-25T04:26:47.074Z,64.75
2018-08-25T04:29:14.808Z,64.91
2018-08-25T04:31:42.428Z,65.14
2018-08-25T04:34:10.078Z,65.19
2018-08-25T04:36:37.719Z,65.07
2018-08-25T04:39:08.037Z,65.09
2018-08-25T04:41:35.847Z,64.55
2018-08-25T04:44:03.755Z,65.41
2018-08-25T04:46:31.370Z,65.61
2018-08-25T04:48:58.984Z,65.58
2018-08-25T04:51:26.691Z,64.70
2018-08-25T04:53:54.406Z,65.09
2018-08-25T04:56:22.029Z,64.95
2018-08-25T04:58:49.651Z,64.59
2018-08-25T05:01:17.246Z,64.37
2018-08-25T05:03:44.932Z,63.79
2018-08-25T05:06:12.577Z,63.77
2018-08-25T05:08:40.185Z,64.31
2018-08-25T05:11:07.790Z,64.32
2018-08-25T05:13:35.477Z,64.08
2018-08-25T05:16:03.127Z,63.97
2018-08-25T05:18:30.743Z,63.94
2018-08-25T05:20:58.405Z,63.65
2018-08-25T05:23:26.046Z,64.24
2018-08-25T05:25:53.707Z,63.74
2018-08-25T05:28:21.383Z,63.61
2018-08-25T05:30:49.016Z,63.60
2018-08-25T05:33:16.627Z,63.87
2018-08-25T05:35:44.287Z,63.03
2018-08-25T05:38:12.100Z,63.08
2018-08-25T05:40:39.729Z,63.51
2018-08-25T05:43:07.408Z,63.77
2018-08-25T05:45:35.070Z,63.18
2018-08-25T05:48:02.698Z,63.28
2018-08-25T05:50:30.320Z,63.55
2018-08-25T05:52:57.912Z,63.06
2018-08-25T05:55:25.609Z,62.30
2018-08-25T05:57:53.266Z,61.68
2018-08-25T06:00:20.875Z,61.69
2018-08-25T06:02:48.479Z,61.86
2018-08-25T06:05:16.124Z,61.88
2018-08-25T06:07:43.738Z,61.20
2018-08-25T06:10:11.392Z,60.86
2018-08-25T06:12:39.082Z,61.73
2018-08-25T06:15:06.705Z,62.18
2018-08-25T06:17:34.321Z,62.05
2018-08-25T06:20:01.973Z,62.06
2018-08-25T06:22:29.641Z,62.20
2018-08-25T06:24:57.289Z,61.81
2018-08-25T06:27:24.911Z,61.46
2018-08-25T06:29:52.686Z,62.23
2018-08-25T06:32:20.276Z,62.06
2018-08-25T06:34:47.967Z,61.72
2018-08-25T06:37:15.604Z,61.70
2018-08-25T06:39:43.211Z,61.79
2018-08-25T06:42:10.894Z,61.22
2018-08-25T06:44:38.529Z,61.33
2018-08-25T06:47:06.244Z,60.80
2018-08-25T06:49:33.941Z,60.84
2018-08-25T06:52:01.587Z,60.94
2018-08-25T06:54:29.208Z,60.66
2018-08-25T06:56:56.864Z,59.89
2018-08-25T06:59:24.540Z,59.75
2018-08-25T07:01:52.135Z,59.11
2018-08-25T07:04:19.813Z,59.72
2018-08-25T07:06:47.460Z,58.54
2018-08-25T07:09:15.108Z,58.92
2018-08-25T07:11:42.803Z,57.80
2018-08-25T07:14:10.841Z,58.18
2018-08-25T07:16:38.708Z,57.21
2018-08-25T07:19:06.461Z,56.87
2018-08-25T07:21:34.080Z,56.02
2018-08-25T07:24:01.831Z,55.28
2018-08-25T07:26:29.511Z,54.58
2018-08-25T07:28:57.263Z,55.12
2018-08-25T07:31:24.864Z,55.13
2018-08-25T07:33:52.537Z,54.73
2018-08-25T07:36:20.151Z,54.35
2018-08-25T07:38:47.762Z,53.34
2018-08-25T07:41:15.404Z,53.33
2018-08-25T07:43:43.022Z,52.88
2018-08-25T07:46:10.657Z,52.88
2018-08-25T07:48:38.429Z,52.96
2018-08-25T07:51:06.146Z,53.88
2018-08-25T07:53:33.793Z,53.68
2018-08-25T07:56:01.553Z,53.99
2018-08-25T07:58:29.312Z,54.22
2018-08-25T08:00:57.012Z,54.04
2018-08-25T08:03:24.643Z,54.44
2018-08-25T08:05:52.260Z,54.67
2018-08-25T08:08:19.884Z,53.48
2018-08-25T08:10:47.731Z,53.77
2018-08-25T08:13:15.629Z,53.03
2018-08-25T08:15:43.960Z,53.01
2018-08-25T08:18:11.625Z,52.62
2018-08-25T08:20:39.495Z,52.24
2018-08-25T08:23:07.508Z,53.09
2018-08-25T08:25:35.427Z,51.49
2018-08-25T08:28:03.046Z,50.56
2018-08-25T08:30:30.710Z,49.90
2018-08-25T08:32:58.409Z,49.92
2018-08-25T08:35:26.055Z,49.99
2018-08-25T08:37:53.984Z,48.75
2018-08-25T08:40:21.636Z,47.42
2018-08-25T08:42:49.275Z,47.86
2018-08-25T08:45:16.956Z,48.07
2018-08-25T08:47:44.778Z,47.29
2018-08-25T08:50:12.443Z,47.98
2018-08-25T08:52:40.072Z,46.87
2018-08-25T08:55:08.112Z,45.26
2018-08-25T08:57:36.088Z,45.10
2018-08-25T09:00:04.173Z,44.05
2018-08-25T09:02:31.800Z,43.94
2018-08-25T09:04:59.470Z,45.35
2018-08-25T09:07:27.117Z,43.00
2018-08-25T09:09:54.801Z,42.33
2018-08-25T09:12:22.440Z,41.49
2018-08-25T09:14:50.099Z,41.32
2018-08-25T09:17:17.828Z,42.02
2018-08-25T09:19:45.484Z,41.59
2018-08-25T09:22:13.110Z,41.70
2018-08-25T09:24:40.777Z,38.48
2018-08-25T09:27:08.409Z,35.69
2018-08-25T09:29:36.020Z,34.57
2018-08-25T09:32:03.800Z,33.25
2018-08-25T09:34:31.463Z,31.51
2018-08-25T09:36:59.290Z,32.35
2018-08-25T09:39:26.835Z,32.53
2018-08-25T09:41:54.558Z,34.99
2018-08-25T09:44:22.174Z,36.44
2018-08-25T09:46:49.918Z,37.06
2018-08-25T09:49:17.526Z,37.86
2018-08-25T09:51:45.177Z,38.13
2018-08-25T09:54:12.828Z,38.25
2018-08-25T09:56:40.545Z,37.18
2018-08-25T09:59:08.201Z,36.20
2018-08-25T10:01:41.349Z,36.06
2018-08-25T10:04:09.099Z,34.57
2018-08-25T10:06:36.711Z,34.44
2018-08-25T10:09:05.975Z,34.81
2018-08-25T10:11:33.610Z,35.58
2018-08-25T10:14:01.249Z,35.40
2018-08-25T10:16:28.977Z,34.94
2018-08-25T10:18:56.644Z,35.43
2018-08-25T10:21:24.256Z,35.17
2018-08-25T10:23:51.972Z,32.74
2018-08-25T10:26:19.713Z,33.78
2018-08-25T10:28:47.347Z,32.91
2018-08-25T10:31:15.040Z,32.33
2018-08-25T10:33:42.663Z,33.38
2018-08-25T10:36:10.265Z,33.30
2018-08-25T10:38:37.933Z,32.39
2018-08-25T10:41:05.726Z,33.64
2018-08-25T10:43:33.343Z,33.64
2018-08-25T10:46:00.994Z,33.46
2018-08-25T10:48:28.628Z,34.29
2018-08-25T10:50:56.219Z,35.17
2018-08-25T10:53:23.847Z,35.43
2018-08-25T10:55:51.462Z,36.63
2018-08-25T10:58:19.320Z,36.58
2018-08-25T11:00:47.221Z,36.45
2018-08-25T11:03:14.652Z,36.19
2018-08-25T11:05:42.348Z,36.43
2018-08-25T11:08:10.003Z,36.94
2018-08-25T11:10:37.622Z,36.89
2018-08-25T11:13:05.311Z,36.59
2018-08-25T11:15:32.971Z,36.57
2018-08-25T11:18:00.647Z,36.85
2018-08-25T11:20:28.315Z,37.08
2018-08-25T11:22:56.024Z,37.38
2018-08-25T11:25:24.396Z,37.77
2018-08-25T11:27:52.040Z,37.59
2018-08-25T11:30:19.916Z,37.09
2018-08-25T11:32:47.619Z,36.88
2018-08-25T11:35:15.484Z,37.36
2018-08-25T11:37:43.195Z,37.93
2018-08-25T11:40:10.810Z,38.13
2018-08-25T11:42:38.497Z,39.03
2018-08-25T11:45:06.526Z,39.52
2018-08-25T11:47:34.323Z,40.13
2018-08-25T11:50:01.972Z,41.14
2018-08-25T11:52:29.615Z,41.11
2018-08-25T11:54:57.232Z,42.16
2018-08-25T11:57:24.847Z,41.81
2018-08-25T11:59:52.516Z,41.21
2018-08-25T12:02:20.209Z,42.09
2018-08-25T12:04:47.831Z,41.64
2018-08-25T12:07:15.452Z,42.73
2018-08-25T12:09:43.217Z,43.42
2018-08-25T12:12:10.832Z,44.23
2018-08-25T12:14:38.459Z,44.61
2018-08-25T12:17:06.448Z,43.00
2018-08-25T12:19:34.350Z,44.35
2018-08-25T12:22:02.213Z,44.82
2018-08-25T12:24:29.900Z,43.39
2018-08-25T12:27:00.185Z,44.06
2018-08-25T12:29:28.037Z,43.52
2018-08-25T12:31:55.676Z,44.02
2018-08-25T12:34:23.277Z,45.00
2018-08-25T12:36:50.940Z,45.15
2018-08-25T12:39:18.543Z,44.80
2018-08-25T12:41:46.192Z,44.70
2018-08-25T12:44:13.837Z,44.88
2018-08-25T12:46:41.478Z,46.06
2018-08-25T12:49:09.102Z,45.83
2018-08-25T12:51:36.804Z,45.99
2018-08-25T12:54:04.588Z,45.87
2018-08-25T12:56:32.396Z,45.75
2018-08-25T12:59:00.060Z,46.29
2018-08-25T13:01:27.736Z,46.70
2018-08-25T13:03:55.398Z,46.86
2018-08-25T13:06:23.040Z,46.07
2018-08-25T13:08:50.658Z,45.58
2018-08-25T13:11:18.294Z,45.52
2018-08-25T13:13:45.939Z,44.85
2018-08-25T13:16:13.558Z,44.82
2018-08-25T13:18:41.247Z,46.36
2018-08-25T13:21:09.004Z,47.32
2018-08-25T13:23:36.640Z,46.35
2018-08-25T13:26:04.294Z,48.41
2018-08-25T13:28:32.013Z,49.99
2018-08-25T13:30:59.710Z,50.96
2018-08-25T13:33:27.383Z,51.44
2018-08-25T13:35:55.036Z,52.07
2018-08-25T13:38:22.812Z,51.27
2018-08-25T13:40:50.512Z,50.43
2018-08-25T13:43:18.360Z,50.49
2018-08-25T13:45:46.148Z,49.29
2018-08-25T13:48:13.765Z,49.48
2018-08-25T13:50:41.804Z,47.72
2018-08-25T13:53:10.093Z,47.77
2018-08-25T13:55:37.816Z,47.06
2018-08-25T13:58:05.610Z,46.49
2018-08-25T14:00:33.224Z,47.17
2018-08-25T14:03:00.852Z,45.69
2018-08-25T14:05:28.520Z,45.41
2018-08-25T14:07:56.179Z,45.61
2018-08-25T14:10:23.802Z,44.87
2018-08-25T14:12:51.537Z,44.42
2018-08-25T14:15:19.144Z,45.09
2018-08-25T14:17:46.756Z,44.89
2018-08-25T14:20:14.436Z,44.38
2018-08-25T14:22:42.169Z,44.43
2018-08-25T14:25:09.877Z,45.81
2018-08-25T14:27:37.555Z,45.58
2018-08-25T14:30:06.239Z,45.40
2018-08-25T14:32:34.074Z,46.29
2018-08-25T14:35:01.972Z,45.49
2018-08-25T14:37:29.603Z,45.39
2018-08-25T14:39:57.300Z,45.56
2018-08-25T14:42:25.023Z,46.30
2018-08-25T14:44:52.666Z,45.98
2018-08-25T14:47:20.363Z,45.11
2018-08-25T14:49:48.088Z,45.49
2018-08-25T14:52:15.887Z,45.86
2018-08-25T14:54:43.658Z,46.50
2018-08-25T14:57:11.378Z,47.57
2018-08-25T14:59:39.011Z,47.51
2018-08-25T15:02:06.754Z,48.14
2018-08-25T15:04:34.427Z,47.86
2018-08-25T15:07:02.150Z,47.41
2018-08-25T15:09:29.743Z,47.25
2018-08-25T15:11:57.515Z,47.24
2018-08-25T15:14:25.254Z,47.21
2018-08-25T15:16:52.890Z,47.66
2018-08-25T15:19:20.586Z,47.96
2018-08-25T15:21:48.219Z,48.05
2018-08-25T15:24:15.858Z,47.46
2018-08-25T15:26:43.820Z,47.69
2018-08-25T15:29:11.532Z,47.67
2018-08-25T15:31:39.291Z,47.73
2018-08-25T15:34:07.764Z,47.96
2018-08-25T15:36:35.781Z,47.92
2018-08-25T15:39:06.823Z,48.55
2018-08-25T15:41:34.476Z,48.44
2018-08-25T15:44:02.091Z,48.25
2018-08-25T15:46:29.715Z,48.36
2018-08-25T15:48:57.309Z,48.48
2018-08-25T15:51:25.087Z,48.09
2018-08-25T15:53:52.748Z,48.38
2018-08-25T15:56:20.381Z,48.32
2018-08-25T15:58:48.251Z,48.35
2018-08-25T16:01:15.963Z,48.35
2018-08-25T16:03:44.306Z,48.22
2018-08-25T16:06:12.708Z,48.22
2018-08-25T16:08:40.340Z,47.88
2018-08-25T16:11:08.049Z,48.06
2018-08-25T16:13:35.640Z,48.60
2018-08-25T16:16:03.323Z,48.70
2018-08-25T16:18:30.995Z,49.40
2018-08-25T16:20:58.655Z,49.47
2018-08-25T16:23:26.323Z,49.49
2018-08-25T16:25:53.920Z,49.26
2018-08-25T16:28:21.531Z,49.80
2018-08-25T16:30:49.152Z,50.16
2018-08-25T16:33:16.765Z,50.34
2018-08-25T16:35:44.365Z,50.25
2018-08-25T16:38:12.018Z,50.19
2018-08-25T16:40:39.629Z,50.04
2018-08-25T16:43:07.498Z,50.16
2018-08-25T16:45:35.170Z,50.47
2018-08-25T16:48:02.823Z,50.75
2018-08-25T16:50:30.428Z,50.22
2018-08-25T16:52:58.087Z,50.32
2018-08-25T16:55:26.219Z,50.13
2018-08-25T16:57:53.828Z,50.83
2018-08-25T17:00:21.481Z,50.55
2018-08-25T17:02:49.116Z,49.02
2018-08-25T17:05:16.741Z,47.64
2018-08-25T17:07:44.408Z,47.80
2018-08-25T17:10:12.157Z,47.12
2018-08-25T17:12:39.778Z,47.65
2018-08-25T17:15:07.574Z,48.23
2018-08-25T17:17:35.264Z,48.64
2018-08-25T17:20:02.939Z,48.92
2018-08-25T17:22:30.567Z,49.31
2018-08-25T17:24:58.211Z,49.64
2018-08-25T17:27:25.868Z,49.28
2018-08-25T17:29:53.513Z,49.40
2018-08-25T17:32:21.140Z,49.52
2018-08-25T17:34:48.764Z,49.44
2018-08-25T17:37:16.448Z,49.49
2018-08-25T17:39:44.106Z,49.66
2018-08-25T17:42:11.844Z,49.78
2018-08-25T17:44:39.474Z,50.52
2018-08-25T17:47:07.136Z,50.55
2018-08-25T17:49:34.787Z,51.08
2018-08-25T17:52:02.448Z,51.13
2018-08-25T17:54:30.084Z,51.08
2018-08-25T17:56:57.767Z,51.29
2018-08-25T17:59:25.405Z,51.37
2018-08-25T18:01:53.074Z,52.20
2018-08-25T18:04:20.704Z,52.34
2018-08-25T18:06:48.495Z,52.51
2018-08-25T18:09:16.122Z,52.65
2018-08-25T18:11:43.757Z,52.98
2018-08-25T18:14:11.649Z,52.68
2018-08-25T18:16:39.328Z,52.69
2018-08-25T18:19:07.053Z,52.62
2018-08-25T18:21:34.792Z,52.18
2018-08-25T18:24:02.516Z,52.23
2018-08-25T18:26:30.248Z,52.69
2018-08-25T18:28:57.893Z,52.64
2018-08-25T18:31:26.518Z,53.03
2018-08-25T18:33:54.162Z,52.92
2018-08-25T18:36:21.824Z,53.18
2018-08-25T18:38:49.440Z,53.05
2018-08-25T18:41:17.066Z,52.80
2018-08-25T18:43:44.719Z,52.98
2018-08-25T18:46:12.354Z,53.43
2018-08-25T18:48:40.040Z,53.35
2018-08-25T18:51:07.809Z,53.45
2018-08-25T18:53:35.498Z,53.27
2018-08-25T18:56:03.364Z,53.07
2018-08-25T18:58:31.270Z,52.43
2018-08-25T19:00:59.059Z,52.71
2018-08-25T19:03:26.949Z,52.53
2018-08-25T19:05:55.060Z,52.10
2018-08-25T19:08:22.759Z,52.54
2018-08-25T19:10:50.411Z,53.16
2018-08-25T19:13:18.312Z,52.88
2018-08-25T19:15:46.175Z,53.17
2018-08-25T19:18:13.771Z,53.53
2018-08-25T19:20:41.578Z,53.66
2018-08-25T19:23:09.430Z,53.95
2018-08-25T19:25:37.245Z,53.87
2018-08-25T19:28:05.111Z,53.72
2018-08-25T19:30:32.763Z,53.88
2018-08-25T19:33:00.404Z,53.90
2018-08-25T19:35:28.176Z,54.06
2018-08-25T19:37:55.754Z,53.93
2018-08-25T19:40:23.378Z,54.28
2018-08-25T19:42:51.064Z,54.50
2018-08-25T19:45:18.695Z,54.15
2018-08-25T19:47:46.331Z,54.57
2018-08-25T19:50:14.003Z,54.64
2018-08-25T19:52:41.719Z,55.00
2018-08-25T19:55:09.322Z,55.17
2018-08-25T19:57:37.070Z,55.28
2018-08-25T20:00:04.881Z,55.34
2018-08-25T20:02:32.492Z,55.12
2018-08-25T20:05:00.343Z,55.05
2018-08-25T20:07:28.414Z,54.87
2018-08-25T20:09:56.756Z,54.96
2018-08-25T20:12:24.612Z,54.58
2018-08-25T20:14:52.293Z,54.80
2018-08-25T20:17:19.979Z,54.54
2018-08-25T20:19:47.663Z,54.40
2018-08-25T20:22:15.283Z,54.49
2018-08-25T20:24:42.978Z,54.40
2018-08-25T20:27:10.746Z,54.60
2018-08-25T20:29:38.431Z,54.69
2018-08-25T20:32:06.271Z,55.01
2018-08-25T20:34:33.892Z,55.12
2018-08-25T20:37:01.577Z,55.28
2018-08-25T20:39:29.377Z,55.57
2018-08-25T20:41:57.199Z,55.88
2018-08-25T20:44:24.851Z,56.59
2018-08-25T20:46:52.517Z,56.87
2018-08-25T20:49:20.232Z,57.01
2018-08-25T20:51:47.880Z,57.06
2018-08-25T20:54:15.508Z,57.16
2018-08-25T20:56:43.144Z,57.59
2018-08-25T20:59:10.730Z,57.78
2018-08-25T21:01:38.349Z,57.82
2018-08-25T21:04:06.091Z,58.26
2018-08-25T21:06:33.806Z,58.45
2018-08-25T21:09:01.422Z,58.07
2018-08-25T21:11:29.111Z,57.79
2018-08-25T21:13:56.806Z,57.58
2018-08-25T21:16:24.396Z,57.15
2018-08-25T21:18:52.107Z,57.31
2018-08-25T21:21:19.755Z,57.13
2018-08-25T21:23:47.448Z,57.48
2018-08-25T21:26:15.132Z,57.72
2018-08-25T21:28:42.774Z,58.21
2018-08-25T21:31:10.400Z,57.97
2018-08-25T21:33:38.041Z,58.34
2018-08-25T21:36:05.656Z,58.19
2018-08-25T21:38:33.282Z,57.95
2018-08-25T21:41:00.988Z,58.25
2018-08-25T21:43:28.609Z,58.67
2018-08-25T21:45:56.284Z,59.28
2018-08-25T21:48:24.051Z,59.38
2018-08-25T21:50:51.656Z,59.27
2018-08-25T21:53:19.260Z,59.50
2018-08-25T21:55:46.932Z,59.39
2018-08-25T21:58:14.627Z,59.11
2018-08-25T22:00:47.829Z,58.80
2018-08-25T22:03:15.452Z,58.80
2018-08-25T22:05:43.057Z,59.29
2018-08-25T22:08:10.718Z,59.09
2018-08-25T22:10:38.354Z,59.19
2018-08-25T22:13:07.112Z,59.24
2018-08-25T22:15:34.773Z,59.00
2018-08-25T22:18:02.400Z,59.01
2018-08-25T22:20:30.043Z,58.76
2018-08-25T22:22:57.760Z,58.87
2018-08-25T22:25:25.378Z,58.81
2018-08-25T22:27:53.015Z,58.83
2018-08-25T22:30:20.692Z,58.70
2018-08-25T22:32:48.303Z,59.00
2018-08-25T22:35:16.019Z,58.82
2018-08-25T22:37:43.727Z,58.84
2018-08-25T22:40:11.340Z,59.10
2018-08-25T22:42:39.007Z,58.69
2018-08-25T22:45:06.847Z,58.66
2018-08-25T22:47:34.463Z,59.05
2018-08-25T22:50:02.108Z,59.57
2018-08-25T22:52:35.202Z,59.81
2018-08-25T22:55:02.886Z,60.73
2018-08-25T22:57:30.622Z,61.21
2018-08-25T22:59:58.360Z,60.40
2018-08-25T23:02:30.754Z,61.09
2018-08-25T23:04:58.424Z,61.02
2018-08-25T23:07:26.087Z,60.87
2018-08-25T23:09:53.727Z,60.62
2018-08-25T23:12:21.431Z,61.05
2018-08-25T23:14:49.088Z,60.66
2018-08-25T23:17:16.735Z,60.78
2018-08-25T23:19:44.419Z,61.09
2018-08-25T23:22:12.096Z,61.31
2018-08-25T23:24:39.718Z,61.15
2018-08-25T23:27:07.406Z,61.20
2018-08-25T23:29:35.075Z,61.34
2018-08-25T23:32:02.762Z,61.67
2018-08-25T23:34:30.439Z,61.33
2018-08-25T23:36:58.067Z,61.51
2018-08-25T23:39:25.690Z,62.05
2018-08-25T23:41:53.354Z,62.21
2018-08-25T23:44:21.008Z,61.97
2018-08-25T23:46:48.639Z,61.61
2018-08-25T23:49:16.308Z,61.80
2018-08-25T23:51:43.943Z,61.65
2018-08-25T23:54:11.545Z,61.47
2018-08-25T23:56:39.193Z,61.43
2018-08-25T23:59:07.046Z,60.97
